Time;durP1;ratioP1;P1;durP2;ratioP2;P2;SDS_P1;SDS_P2;PMS_P1;PMS_P2;Temp;Humidity;BMP_temperature;BMP_pressure;BME280_temperature;BME280_humidity;BME280_pressure;Samples;Min_cycle;Max_cycle;Signal;HPM_P1;HPM_P2
2022/06/29 04:01:22;;;;;;;3.00;2.90;;;16.80;99.90;;;;;;5559191;23;20510;-69
2022/06/29 04:03:49;;;;;;;2.70;2.70;;;16.80;99.90;;;;;;4975251;28;20466;-69
2022/06/29 04:06:16;;;;;;;2.80;2.60;;;16.80;99.90;;;;;;4975734;28;20466;-68
2022/06/29 04:08:42;;;;;;;2.93;2.83;;;16.80;99.90;;;;;;4975317;28;20460;-69
2022/06/29 04:13:50;;;;;;;3.53;3.33;;;16.90;99.90;;;;;;4955765;29;20492;-68
2022/06/29 04:16:16;;;;;;;2.90;2.70;;;16.90;99.90;;;;;;4956375;29;20479;-68
2022/06/29 04:18:44;;;;;;;2.90;2.80;;;17.00;99.90;;;;;;4955958;29;20465;-68
2022/06/29 04:21:11;;;;;;;3.50;3.40;;;17.10;99.90;;;;;;4955705;29;20516;-68
2022/06/29 04:23:38;;;;;;;3.30;3.20;;;17.10;99.90;;;;;;4955218;29;20469;-68
2022/06/29 04:26:04;;;;;;;3.07;2.87;;;17.20;99.90;;;;;;4956295;29;20461;-68
2022/06/29 04:28:31;;;;;;;2.70;2.70;;;17.30;99.90;;;;;;4956037;29;20472;-68
2022/06/29 04:30:58;;;;;;;2.87;2.77;;;17.50;99.90;;;;;;4955695;29;20488;-68
2022/06/29 04:33:25;;;;;;;3.40;2.67;;;17.70;99.90;;;;;;4955699;29;20471;-67
2022/06/29 04:35:54;;;;;;;2.93;2.70;;;17.90;99.90;;;;;;4955874;29;20460;-68
2022/06/29 04:38:20;;;;;;;2.50;2.50;;;18.20;99.90;;;;;;4955609;28;20487;-67
2022/06/29 04:40:47;;;;;;;2.53;2.43;;;18.80;99.90;;;;;;4955082;29;20492;-66
2022/06/29 04:43:14;;;;;;;2.43;2.33;;;19.40;99.90;;;;;;4955402;29;20496;-66
2022/06/29 04:48:24;;;;;;;1.90;1.90;;;20.70;99.90;;;;;;4955348;29;20448;-68
2022/06/29 04:50:51;;;;;;;2.20;2.10;;;21.40;99.90;;;;;;4954964;29;20592;-67
2022/06/29 04:53:19;;;;;;;2.50;2.50;;;21.80;99.90;;;;;;4954321;29;20965;-67
2022/06/29 04:55:46;;;;;;;2.20;2.20;;;22.40;99.90;;;;;;4955071;29;20555;-67
2022/06/29 04:58:12;;;;;;;2.23;2.23;;;22.90;99.90;;;;;;4954989;28;20508;-67
2022/06/29 05:00:39;;;;;;;1.60;1.60;;;23.30;99.90;;;;;;4964605;28;20495;-67
2022/06/29 05:03:06;;;;;;;1.73;1.73;;;23.70;99.90;;;;;;4974232;28;20488;-66
2022/06/29 05:05:33;;;;;;;1.90;1.90;;;24.00;99.90;;;;;;4974427;28;20468;-67
2022/06/29 05:08:00;;;;;;;1.60;1.60;;;24.20;99.90;;;;;;4973898;28;20469;-67
2022/06/29 05:10:28;;;;;;;2.80;1.90;;;24.40;99.90;;;;;;4973638;28;20469;-68
2022/06/29 05:12:54;;;;;;;1.93;1.83;;;24.30;99.90;;;;;;4974339;28;20551;-66
2022/06/29 05:15:21;;;;;;;1.60;1.60;;;23.60;99.90;;;;;;4973364;28;20467;-66
2022/06/29 05:17:48;;;;;;;1.60;1.60;;;23.10;99.90;;;;;;4973747;28;20566;-66
2022/06/29 05:20:14;;;;;;;1.90;1.90;;;22.70;99.90;;;;;;4973467;28;20472;-66
2022/06/29 05:22:41;;;;;;;2.87;2.77;;;22.50;99.90;;;;;;4973493;28;20487;-67
2022/06/29 05:25:08;;;;;;;1.83;1.80;;;22.40;99.90;;;;;;4973767;28;20494;-67
2022/06/29 05:27:36;;;;;;;1.90;1.90;;;22.50;99.90;;;;;;4974133;28;20467;-67
2022/06/29 05:30:04;;;;;;;1.73;1.73;;;22.50;99.90;;;;;;4973255;28;20474;-66
2022/06/29 05:32:31;;;;;;;1.80;1.80;;;22.40;99.90;;;;;;4973507;28;20486;-67
2022/06/29 05:34:57;;;;;;;2.03;1.93;;;22.50;99.90;;;;;;4973785;28;20468;-66
2022/06/29 05:37:24;;;;;;;1.90;1.80;;;22.20;99.90;;;;;;4973772;28;20467;-67
2022/06/29 05:39:51;;;;;;;2.00;1.90;;;22.20;99.90;;;;;;4973251;28;20808;-66
2022/06/29 05:42:18;;;;;;;1.80;1.80;;;22.40;99.90;;;;;;4973691;28;20603;-66
2022/06/29 05:44:46;;;;;;;1.80;1.80;;;22.60;99.90;;;;;;4973146;28;20491;-67
2022/06/29 05:47:14;;;;;;;1.80;1.80;;;23.00;99.90;;;;;;4973583;28;20474;-68
2022/06/29 05:49:41;;;;;;;1.83;1.73;;;23.20;99.90;;;;;;4969411;28;20460;-66
2022/06/29 05:52:08;;;;;;;1.53;1.53;;;23.30;99.90;;;;;;4973489;28;20594;-67
2022/06/29 05:54:35;;;;;;;1.63;1.53;;;23.40;99.90;;;;;;4972988;28;20551;-67
2022/06/29 05:57:02;;;;;;;1.70;1.70;;;23.40;99.90;;;;;;4973670;28;20479;-67
2022/06/29 05:59:29;;;;;;;2.13;2.03;;;23.40;99.90;;;;;;4972904;28;20816;-67
2022/06/29 06:01:57;;;;;;;1.90;1.80;;;23.20;99.90;;;;;;4973379;28;20515;-66
2022/06/29 06:04:24;;;;;;;2.00;2.00;;;23.30;99.90;;;;;;4973349;28;20471;-67
2022/06/29 06:06:51;;;;;;;2.63;1.97;;;23.40;99.90;;;;;;4974790;28;20987;-67
2022/06/29 06:09:21;;;;;;;2.63;1.77;;;23.70;99.90;;;;;;4974324;28;20523;-67
2022/06/29 06:11:47;;;;;;;2.20;2.20;;;24.00;99.90;;;;;;4973357;28;20577;-67
2022/06/29 06:14:14;;;;;;;1.53;1.53;;;24.30;99.90;;;;;;4973695;28;20543;-67
2022/06/29 06:16:41;;;;;;;2.27;2.10;;;24.80;99.90;;;;;;4973931;28;20944;-68
2022/06/29 06:19:09;;;;;;;2.83;1.90;;;25.10;99.90;;;;;;4973443;28;20473;-68
2022/06/29 06:21:36;;;;;;;2.17;2.07;;;25.20;99.90;;;;;;4973395;28;20493;-68
2022/06/29 06:24:03;;;;;;;2.10;2.00;;;25.70;99.90;;;;;;4972730;28;20492;-68
2022/06/29 06:26:31;;;;;;;2.00;2.00;;;25.80;99.90;;;;;;4973382;28;20476;-67
2022/06/29 06:28:58;;;;;;;2.30;1.83;;;25.60;99.90;;;;;;4973523;28;20466;-68
2022/06/29 06:31:25;;;;;;;2.63;2.30;;;25.40;99.90;;;;;;4973156;28;20497;-67
2022/06/29 06:33:52;;;;;;;1.93;1.93;;;25.30;99.90;;;;;;4973226;28;20844;-68
2022/06/29 06:36:20;;;;;;;4.17;1.90;;;25.20;99.90;;;;;;4974010;28;20464;-67
2022/06/29 06:38:47;;;;;;;2.03;1.93;;;24.90;99.90;;;;;;4973290;28;20681;-68
2022/06/29 06:41:21;;;;;;;1.90;1.90;;;24.70;99.90;;;;;;4966006;28;20855;-68
2022/06/29 06:43:48;;;;;;;2.03;2.03;;;24.70;99.90;;;;;;4954295;29;20499;-68
2022/06/29 06:46:15;;;;;;;2.43;2.30;;;24.70;99.90;;;;;;4954017;29;21113;-67
2022/06/29 06:48:43;;;;;;;1.90;1.80;;;25.10;99.90;;;;;;4954633;29;20502;-67
2022/06/29 06:51:10;;;;;;;3.43;1.80;;;25.30;99.90;;;;;;4953621;28;20484;-67
2022/06/29 06:53:38;;;;;;;2.20;2.20;;;25.40;99.90;;;;;;4952656;28;20809;-66
2022/06/29 06:56:06;;;;;;;1.70;1.70;;;25.80;99.90;;;;;;4952947;29;20949;-67
2022/06/29 06:58:35;;;;;;;3.17;2.00;;;26.20;99.90;;;;;;4952868;29;20472;-67
2022/06/29 07:01:02;;;;;;;1.97;1.90;;;26.30;99.90;;;;;;4952332;29;20499;-67
2022/06/29 07:03:31;;;;;;;2.53;2.00;;;26.50;99.90;;;;;;4952908;29;20500;-67
2022/06/29 07:05:59;;;;;;;1.90;1.80;;;26.70;99.90;;;;;;4953012;29;20467;-70
2022/06/29 07:08:25;;;;;;;2.37;2.30;;;26.60;99.90;;;;;;4952609;29;21033;-70
2022/06/29 07:10:54;;;;;;;2.03;1.93;;;26.20;99.90;;;;;;4961846;28;20489;-70
2022/06/29 07:13:20;;;;;;;2.27;2.17;;;26.20;99.90;;;;;;4954427;29;20466;-69
2022/06/29 07:15:47;;;;;;;2.20;2.20;;;26.00;99.90;;;;;;4959923;29;20464;-70
2022/06/29 07:18:14;;;;;;;2.97;2.77;;;26.00;99.90;;;;;;4959525;29;20461;-70
2022/06/29 07:20:40;;;;;;;2.00;2.00;;;25.90;99.90;;;;;;4956501;29;20496;-69
2022/06/29 07:23:07;;;;;;;2.40;2.40;;;25.60;99.90;;;;;;4954973;28;20485;-69
2022/06/29 07:25:34;;;;;;;2.07;2.07;;;25.30;99.90;;;;;;4954878;29;20473;-68
2022/06/29 07:28:02;;;;;;;2.00;1.90;;;25.00;99.90;;;;;;4953490;29;20465;-69
2022/06/29 07:30:29;;;;;;;2.10;2.10;;;25.00;99.90;;;;;;4952578;29;20469;-69
2022/06/29 07:32:56;;;;;;;2.07;2.00;;;25.30;99.90;;;;;;4952770;29;20461;-69
2022/06/29 07:35:22;;;;;;;2.20;2.13;;;25.40;99.90;;;;;;4953102;29;20491;-68
2022/06/29 07:37:51;;;;;;;2.33;2.23;;;25.30;99.90;;;;;;4953304;29;20563;-70
2022/06/29 07:40:18;;;;;;;1.47;1.47;;;25.20;99.90;;;;;;4952124;29;20468;-70
2022/06/29 07:42:45;;;;;;;2.37;2.37;;;25.10;99.90;;;;;;4952921;29;20495;-68
2022/06/29 07:45:13;;;;;;;2.23;2.20;;;25.30;99.90;;;;;;4952224;29;20468;-69
2022/06/29 07:47:40;;;;;;;2.50;2.40;;;25.40;99.90;;;;;;4952980;29;20472;-70
2022/06/29 07:50:10;;;;;;;2.10;2.10;;;25.60;99.90;;;;;;4952396;29;20471;-69
2022/06/29 07:52:37;;;;;;;1.80;1.80;;;25.70;99.90;;;;;;4952312;28;20495;-68
2022/06/29 07:55:04;;;;;;;1.83;1.83;;;25.70;99.90;;;;;;4952279;29;20471;-69
2022/06/29 07:57:31;;;;;;;2.63;2.10;;;25.80;99.90;;;;;;4952774;28;20471;-69
2022/06/29 07:59:58;;;;;;;2.20;2.20;;;25.70;99.90;;;;;;4965039;28;20468;-69
2022/06/29 08:02:26;;;;;;;1.70;1.70;;;25.90;99.90;;;;;;4971647;28;20493;-69
2022/06/29 08:04:53;;;;;;;2.30;2.20;;;26.40;99.90;;;;;;4971682;28;20472;-70
2022/06/29 08:07:19;;;;;;;2.20;2.20;;;26.70;99.90;;;;;;4971813;28;20477;-68
2022/06/29 08:09:46;;;;;;;2.00;2.00;;;27.00;99.90;;;;;;4973382;28;20581;-70
2022/06/29 08:12:13;;;;;;;2.07;2.07;;;27.50;99.90;;;;;;4972674;28;21015;-70
2022/06/29 08:14:39;;;;;;;2.00;2.00;;;27.90;99.90;;;;;;4971236;28;20479;-67
2022/06/29 08:17:06;;;;;;;2.20;2.20;;;27.90;99.90;;;;;;4971645;28;20485;-69
2022/06/29 08:19:34;;;;;;;2.03;2.03;;;27.90;99.90;;;;;;4971633;28;20836;-68
2022/06/29 08:22:01;;;;;;;2.20;2.10;;;28.10;99.90;;;;;;4971373;28;20676;-69
2022/06/29 08:24:28;;;;;;;2.23;2.23;;;27.80;99.90;;;;;;4970954;28;20498;-70
2022/06/29 08:26:54;;;;;;;1.90;1.87;;;28.00;99.90;;;;;;4971898;28;20531;-70
2022/06/29 08:29:21;;;;;;;2.20;2.20;;;28.20;99.90;;;;;;4970991;28;20461;-70
2022/06/29 08:31:48;;;;;;;2.50;2.50;;;28.50;99.90;;;;;;4971220;28;20484;-70
2022/06/29 08:34:15;;;;;;;2.00;2.00;;;28.20;99.90;;;;;;4973222;28;20460;-70
2022/06/29 08:36:43;;;;;;;2.43;2.20;;;27.90;99.90;;;;;;4975008;28;20475;-69
2022/06/29 08:39:10;;;;;;;1.97;1.97;;;27.40;99.90;;;;;;4959644;28;20470;-69
2022/06/29 08:41:40;;;;;;;2.10;2.10;;;27.40;99.90;;;;;;4955267;29;20512;-70
2022/06/29 08:44:07;;;;;;;4.03;2.13;;;27.20;99.90;;;;;;4955536;29;20609;-70
2022/06/29 08:46:34;;;;;;;1.80;1.80;;;27.60;99.90;;;;;;4955784;29;20473;-70
2022/06/29 08:49:02;;;;;;;1.70;1.70;;;27.80;99.90;;;;;;4955340;29;20573;-69
2022/06/29 08:51:34;;;;;;;2.37;2.37;;;27.70;99.90;;;;;;4955165;29;20485;-68
2022/06/29 08:54:04;;;;;;;2.10;2.10;;;27.50;99.90;;;;;;4954519;29;20466;-69
2022/06/29 08:56:32;;;;;;;2.40;2.40;;;27.40;99.90;;;;;;4955403;29;20471;-68
2022/06/29 08:59:00;;;;;;;2.80;2.70;;;27.00;99.90;;;;;;4954783;29;20479;-67
2022/06/29 09:01:28;;;;;;;2.93;2.83;;;27.10;99.90;;;;;;4954937;29;20498;-68
2022/06/29 09:03:55;;;;;;;2.50;2.50;;;27.10;99.90;;;;;;4955237;28;20501;-70
2022/06/29 09:06:22;;;;;;;2.57;2.57;;;27.00;99.90;;;;;;4955426;29;20472;-69
2022/06/29 09:08:50;;;;;;;2.57;2.53;;;27.20;99.90;;;;;;4954907;29;20471;-69
2022/06/29 09:11:28;;;;;;;2.40;2.33;;;27.10;99.90;;;;;;4956706;28;20501;-69
2022/06/29 09:14:12;;;;;;;2.90;2.90;;;27.40;99.90;;;;;;4954357;29;20895;-68
2022/06/29 09:16:53;;;;;;;3.47;3.17;;;27.20;99.90;;;;;;4955339;29;20541;-67
2022/06/29 09:19:21;;;;;;;2.80;2.70;;;27.10;99.90;;;;;;4955240;29;20470;-68
2022/06/29 09:21:49;;;;;;;3.20;3.00;;;27.00;99.90;;;;;;4954859;29;20501;-69
2022/06/29 09:24:16;;;;;;;3.37;3.27;;;26.80;99.90;;;;;;4954098;29;20488;-69
2022/06/29 09:26:48;;;;;;;3.33;3.23;;;26.70;99.90;;;;;;4954969;29;20469;-70
2022/06/29 09:29:21;;;;;;;2.80;2.63;;;26.80;99.90;;;;;;4954312;28;20967;-69
2022/06/29 09:32:17;;;;;;;3.03;2.93;;;26.90;99.90;;;;;;4954431;28;20980;-68
2022/06/29 09:34:46;;;;;;;2.43;2.33;;;27.10;99.90;;;;;;4954573;29;20468;-70
2022/06/29 09:37:14;;;;;;;2.70;2.70;;;27.30;99.90;;;;;;4954767;29;20471;-68
2022/06/29 09:39:43;;;;;;;2.67;2.67;;;27.40;99.90;;;;;;4954179;29;20464;-69
2022/06/29 09:42:13;;;;;;;2.60;2.50;;;27.70;99.90;;;;;;4954664;29;20489;-69
2022/06/29 09:44:41;;;;;;;2.33;2.23;;;27.80;99.90;;;;;;4953475;28;20861;-69
2022/06/29 09:47:09;;;;;;;2.00;2.00;;;27.80;99.90;;;;;;4954104;29;20837;-68
2022/06/29 09:49:37;;;;;;;4.93;2.57;;;27.60;99.10;;;;;;4954197;29;20480;-68
2022/06/29 09:52:05;;;;;;;2.63;2.53;;;27.30;99.50;;;;;;4954184;28;20493;-68
2022/06/29 09:54:35;;;;;;;2.33;2.33;;;27.30;98.90;;;;;;4953609;29;20477;-68
2022/06/29 09:57:03;;;;;;;2.13;2.10;;;27.30;99.00;;;;;;4954622;29;20469;-69
2022/06/29 10:02:42;;;;;;;6.90;2.20;;;27.10;98.90;;;;;;4953801;29;20487;-68
2022/06/29 10:05:11;;;;;;;2.20;2.20;;;26.90;99.30;;;;;;4953908;29;20489;-70
2022/06/29 10:07:40;;;;;;;2.07;2.03;;;26.90;99.40;;;;;;4953913;28;20552;-67
2022/06/29 10:10:09;;;;;;;2.30;2.20;;;27.00;98.90;;;;;;4953130;29;20491;-67
2022/06/29 10:16:05;;;;;;;1.80;1.80;;;27.10;98.00;;;;;;4954030;29;20456;-69
2022/06/29 10:18:47;;;;;;;2.30;2.20;;;27.00;98.10;;;;;;4953769;29;20564;-69
2022/06/29 10:21:17;;;;;;;2.30;2.30;;;27.10;97.80;;;;;;4953595;29;20499;-69
2022/06/29 10:23:48;;;;;;;2.10;2.10;;;27.10;98.10;;;;;;4953121;29;20489;-69
2022/06/29 10:26:40;;;;;;;2.03;2.03;;;27.00;98.60;;;;;;4953961;28;20485;-69
2022/06/29 10:29:30;;;;;;;2.00;2.00;;;27.20;97.90;;;;;;4953104;29;20984;-68
2022/06/29 10:32:17;;;;;;;2.40;2.37;;;27.10;98.50;;;;;;4953506;29;21031;-68
2022/06/29 10:37:30;;;;;;;2.40;2.20;;;27.30;97.20;;;;;;4954480;28;20456;-69
2022/06/29 10:40:00;;;;;;;2.03;2.03;;;27.30;97.40;;;;;;4953486;28;20835;-70
2022/06/29 10:45:26;;;;;;;2.17;2.07;;;27.40;96.60;;;;;;4953463;29;20926;-69
2022/06/29 10:48:17;;;;;;;1.80;1.80;;;27.50;96.30;;;;;;4953522;29;20466;-70
2022/06/29 10:50:46;;;;;;;1.90;1.90;;;27.70;95.90;;;;;;4953047;29;20997;-70
2022/06/29 10:53:14;;;;;;;2.20;2.10;;;27.60;95.30;;;;;;4952668;28;20473;-69
2022/06/29 10:55:43;;;;;;;2.77;2.77;;;27.30;95.80;;;;;;4953266;29;20465;-69
2022/06/29 10:58:11;;;;;;;5.40;2.47;;;27.40;96.60;;;;;;4952866;28;20468;-69
2022/06/29 11:00:40;;;;;;;2.27;2.17;;;27.50;96.40;;;;;;4952639;29;20577;-69
2022/06/29 11:03:09;;;;;;;2.20;2.20;;;27.40;96.10;;;;;;4953244;29;20469;-69
2022/06/29 11:05:38;;;;;;;2.07;2.07;;;27.60;96.00;;;;;;4952930;29;20461;-67
2022/06/29 11:13:33;;;;;;;2.20;2.20;;;27.60;95.10;;;;;;4953010;29;20446;-69
2022/06/29 11:16:01;;;;;;;2.30;2.30;;;27.80;95.60;;;;;;4952725;29;20470;-69
2022/06/29 11:18:29;;;;;;;2.40;2.30;;;27.90;94.60;;;;;;4952889;29;20542;-68
2022/06/29 11:21:02;;;;;;;2.43;2.43;;;27.80;94.50;;;;;;4952744;29;20592;-68
2022/06/29 11:23:30;;;;;;;2.40;2.40;;;27.60;94.90;;;;;;4952341;29;20459;-68
2022/06/29 11:25:57;;;;;;;2.50;2.40;;;27.40;94.90;;;;;;4953153;29;20469;-71
2022/06/29 11:28:27;;;;;;;2.70;2.70;;;27.30;95.40;;;;;;4953237;28;20472;-68
2022/06/29 11:31:02;;;;;;;2.10;2.10;;;27.40;95.20;;;;;;4966192;28;20484;-68
2022/06/29 11:33:29;;;;;;;2.00;2.00;;;27.60;95.30;;;;;;4972523;28;20471;-67
2022/06/29 11:36:03;;;;;;;2.40;2.40;;;27.90;94.70;;;;;;4971671;28;20480;-67
2022/06/29 11:38:30;;;;;;;2.13;2.00;;;28.00;94.30;;;;;;4971565;28;20468;-69
2022/06/29 11:40:57;;;;;;;1.70;1.70;;;28.20;93.60;;;;;;4972221;28;20863;-69
2022/06/29 11:43:24;;;;;;;2.40;2.40;;;28.10;92.70;;;;;;4971715;28;20468;-70
2022/06/29 11:45:52;;;;;;;1.70;1.70;;;28.00;93.00;;;;;;4971408;28;20884;-69
2022/06/29 11:48:20;;;;;;;1.93;1.67;;;28.20;93.60;;;;;;4971627;28;20539;-69
2022/06/29 11:50:49;;;;;;;1.80;1.80;;;28.30;92.90;;;;;;4971477;28;20490;-69
2022/06/29 11:53:43;;;;;;;2.20;2.10;;;28.30;92.70;;;;;;4971468;28;20469;-69
2022/06/29 11:56:11;;;;;;;1.93;1.93;;;28.40;93.00;;;;;;4971820;28;20455;-70
2022/06/29 11:58:39;;;;;;;2.20;2.20;;;28.50;92.30;;;;;;4970930;28;20513;-70
2022/06/29 12:01:09;;;;;;;1.23;1.23;;;28.40;92.30;;;;;;4965112;28;20512;-70
2022/06/29 12:03:36;;;;;;;2.00;2.00;;;28.10;92.00;;;;;;4952257;29;20569;-70
2022/06/29 12:06:03;;;;;;;2.07;2.07;;;28.00;92.10;;;;;;4952613;29;20465;-70
2022/06/29 12:08:31;;;;;;;2.37;2.27;;;27.80;91.50;;;;;;4955682;28;20472;-69
2022/06/29 12:11:00;;;;;;;2.10;2.00;;;27.90;91.60;;;;;;4959006;28;20509;-70
2022/06/29 12:13:27;;;;;;;2.17;2.07;;;28.00;92.00;;;;;;4957751;29;20461;-69
2022/06/29 12:15:54;;;;;;;1.97;1.97;;;27.90;91.50;;;;;;4955761;29;20550;-70
2022/06/29 12:18:21;;;;;;;1.97;1.87;;;27.80;91.10;;;;;;4956371;29;20463;-70
2022/06/29 12:20:47;;;;;;;2.53;2.23;;;27.80;91.50;;;;;;4956038;29;20497;-69
2022/06/29 12:23:14;;;;;;;1.70;1.70;;;27.70;91.30;;;;;;4955434;29;20553;-69
2022/06/29 12:25:41;;;;;;;2.17;2.10;;;27.80;91.80;;;;;;4955724;29;20489;-69
2022/06/29 12:28:09;;;;;;;2.07;2.07;;;27.90;91.20;;;;;;4956071;29;20472;-67
2022/06/29 12:30:36;;;;;;;2.20;2.20;;;28.00;90.80;;;;;;4955547;29;20956;-69
2022/06/29 12:33:03;;;;;;;2.23;2.13;;;27.90;90.60;;;;;;4956273;29;20465;-70
2022/06/29 12:35:30;;;;;;;2.13;2.03;;;27.70;90.60;;;;;;4955671;29;20457;-67
2022/06/29 12:37:57;;;;;;;2.47;2.20;;;27.70;90.70;;;;;;4955732;28;20523;-68
2022/06/29 12:40:25;;;;;;;2.60;2.50;;;27.70;90.40;;;;;;4964566;28;20960;-70
2022/06/29 12:42:52;;;;;;;2.10;2.00;;;27.70;90.30;;;;;;4975114;28;20859;-69
2022/06/29 12:45:21;;;;;;;2.20;2.20;;;27.80;89.90;;;;;;4974687;28;20520;-69
2022/06/29 12:47:48;;;;;;;2.67;2.60;;;27.90;89.40;;;;;;4974605;28;20475;-69
2022/06/29 12:50:15;;;;;;;2.30;2.30;;;27.90;89.10;;;;;;4974602;28;20586;-69
2022/06/29 12:52:46;;;;;;;2.20;2.00;;;27.90;88.50;;;;;;4974396;28;20474;-68
2022/06/29 12:55:13;;;;;;;1.70;1.70;;;28.00;88.40;;;;;;4974142;28;20463;-69
2022/06/29 12:57:39;;;;;;;1.73;1.73;;;28.00;87.90;;;;;;4974932;28;20475;-69
2022/06/29 13:00:07;;;;;;;2.07;2.07;;;28.10;87.60;;;;;;4973853;28;20473;-68
2022/06/29 13:02:36;;;;;;;2.27;2.17;;;28.20;87.40;;;;;;4974452;28;20493;-68
2022/06/29 13:05:03;;;;;;;2.10;2.10;;;28.30;86.60;;;;;;4974702;28;20529;-68
2022/06/29 13:07:30;;;;;;;2.00;2.00;;;28.20;85.50;;;;;;4974303;28;20979;-69
2022/06/29 13:09:58;;;;;;;2.00;2.00;;;28.20;85.60;;;;;;4974116;28;20564;-67
2022/06/29 13:12:25;;;;;;;1.73;1.73;;;28.30;84.90;;;;;;4974447;28;20499;-68
2022/06/29 13:14:52;;;;;;;1.80;1.80;;;28.30;84.20;;;;;;4974171;28;20465;-69
2022/06/29 13:17:20;;;;;;;1.73;1.70;;;28.50;85.50;;;;;;4974339;28;20838;-68
2022/06/29 13:19:49;;;;;;;1.90;1.90;;;28.40;82.20;;;;;;4972643;28;20469;-69
2022/06/29 13:22:16;;;;;;;2.00;2.00;;;28.30;82.90;;;;;;4974102;28;20482;-69
2022/06/29 13:24:43;;;;;;;2.03;1.93;;;28.50;83.60;;;;;;4973566;28;20552;-68
2022/06/29 13:27:11;;;;;;;2.00;2.00;;;28.50;83.10;;;;;;4971911;28;20477;-70
2022/06/29 13:29:37;;;;;;;1.90;1.80;;;28.50;81.40;;;;;;4972415;28;20467;-69
2022/06/29 13:32:04;;;;;;;2.10;2.10;;;28.60;82.40;;;;;;4973790;28;20486;-69
2022/06/29 13:34:31;;;;;;;2.70;2.70;;;28.60;81.80;;;;;;4973769;28;20466;-69
2022/06/29 13:36:59;;;;;;;2.00;1.90;;;28.50;80.30;;;;;;4973844;28;20977;-68
2022/06/29 13:39:26;;;;;;;2.03;1.93;;;28.50;80.90;;;;;;4973450;28;20471;-69
2022/06/29 13:41:53;;;;;;;2.07;1.97;;;28.40;81.00;;;;;;4973588;28;20488;-69
2022/06/29 13:44:19;;;;;;;1.63;1.60;;;28.20;81.00;;;;;;4973030;28;20491;-69
2022/06/29 13:46:46;;;;;;;2.10;2.10;;;28.20;80.40;;;;;;4973857;28;20469;-68
2022/06/29 13:49:13;;;;;;;1.90;1.90;;;28.20;80.90;;;;;;4973496;28;21035;-70
2022/06/29 13:51:40;;;;;;;1.80;1.80;;;28.10;81.40;;;;;;4973513;28;21035;-70
2022/06/29 13:54:08;;;;;;;2.30;2.20;;;28.20;81.00;;;;;;4972903;28;20810;-69
2022/06/29 13:56:34;;;;;;;1.50;1.50;;;28.20;80.80;;;;;;4973681;28;20463;-68
2022/06/29 13:59:01;;;;;;;1.87;1.77;;;28.00;79.20;;;;;;4972481;28;20468;-69
2022/06/29 14:01:28;;;;;;;1.93;1.90;;;27.90;80.30;;;;;;4972763;28;20507;-68
2022/06/29 14:03:57;;;;;;;2.20;2.20;;;27.90;79.90;;;;;;4973669;28;20478;-68
2022/06/29 14:06:24;;;;;;;2.20;2.10;;;27.90;79.10;;;;;;4973308;28;20499;-68
2022/06/29 14:08:51;;;;;;;2.07;2.07;;;28.00;79.70;;;;;;4973137;28;20972;-69
2022/06/29 14:11:20;;;;;;;2.03;2.03;;;28.10;79.50;;;;;;4973711;28;20587;-68
2022/06/29 14:13:47;;;;;;;1.67;1.67;;;28.10;78.00;;;;;;4973398;28;20487;-67
2022/06/29 14:16:13;;;;;;;1.67;1.57;;;28.10;78.30;;;;;;4973236;28;20501;-70
2022/06/29 14:18:40;;;;;;;1.80;1.80;;;28.20;78.50;;;;;;4973386;28;20479;-68
2022/06/29 14:21:07;;;;;;;2.10;2.10;;;28.30;78.20;;;;;;4973116;28;20539;-68
2022/06/29 14:23:34;;;;;;;1.83;1.83;;;28.40;76.50;;;;;;4972585;28;20866;-69
2022/06/29 14:26:01;;;;;;;2.20;2.10;;;28.40;74.50;;;;;;4973495;28;20491;-68
2022/06/29 14:28:29;;;;;;;1.90;1.67;;;28.50;75.30;;;;;;4973694;28;20807;-69
2022/06/29 14:30:56;;;;;;;2.00;2.00;;;28.50;74.70;;;;;;4972214;28;20495;-68
2022/06/29 14:33:22;;;;;;;1.83;1.73;;;28.50;73.40;;;;;;4973349;28;20486;-67
2022/06/29 14:35:49;;;;;;;1.73;1.73;;;28.50;73.50;;;;;;4973166;28;20506;-68
2022/06/29 14:38:16;;;;;;;3.60;1.87;;;28.60;73.40;;;;;;4964788;28;20476;-68
2022/06/29 14:40:43;;;;;;;2.03;2.03;;;28.60;72.80;;;;;;4953201;28;20488;-68
2022/06/29 14:43:09;;;;;;;1.60;1.60;;;28.70;72.80;;;;;;4953375;29;20497;-69
2022/06/29 14:45:39;;;;;;;1.80;1.80;;;28.90;71.50;;;;;;4953177;29;20496;-68
2022/06/29 14:48:07;;;;;;;1.60;1.60;;;29.00;70.70;;;;;;4953171;29;20473;-69
2022/06/29 14:50:34;;;;;;;1.60;1.60;;;29.00;71.00;;;;;;4952844;29;20870;-69
2022/06/29 14:53:01;;;;;;;1.97;1.97;;;29.20;69.80;;;;;;4952816;29;20549;-68
2022/06/29 14:55:28;;;;;;;1.83;1.83;;;29.30;69.70;;;;;;4953106;29;20521;-69
2022/06/29 14:57:55;;;;;;;1.77;1.70;;;29.40;70.50;;;;;;4953524;29;20648;-67
2022/06/29 15:00:22;;;;;;;1.60;1.60;;;29.40;70.00;;;;;;4952453;29;20469;-70
2022/06/29 15:02:50;;;;;;;1.77;1.77;;;29.40;69.20;;;;;;4953224;29;20481;-69
2022/06/29 15:05:17;;;;;;;1.73;1.73;;;29.40;69.20;;;;;;4953134;29;20817;-69
2022/06/29 15:07:44;;;;;;;1.60;1.60;;;29.40;69.90;;;;;;4953475;29;20469;-70
2022/06/29 15:10:11;;;;;;;1.60;1.60;;;29.40;70.10;;;;;;4953645;29;20846;-70
2022/06/29 15:12:38;;;;;;;2.53;2.40;;;29.40;70.10;;;;;;4954807;29;20492;-70
2022/06/29 15:15:05;;;;;;;1.90;1.90;;;29.30;71.00;;;;;;4953577;29;20461;-70
2022/06/29 15:17:32;;;;;;;2.30;2.30;;;29.20;71.60;;;;;;4953230;28;20476;-70
2022/06/29 15:20:00;;;;;;;4.27;2.33;;;29.20;71.40;;;;;;4953054;29;20465;-70
2022/06/29 15:22:27;;;;;;;1.87;1.87;;;29.10;71.40;;;;;;4955721;29;20485;-70
2022/06/29 15:24:54;;;;;;;2.40;2.40;;;28.80;70.70;;;;;;4953848;29;20489;-70
2022/06/29 15:27:21;;;;;;;1.93;1.93;;;28.70;71.60;;;;;;4955934;28;20468;-69
2022/06/29 15:29:47;;;;;;;1.87;1.87;;;28.60;71.40;;;;;;4956976;29;20479;-70
2022/06/29 15:32:14;;;;;;;1.83;1.83;;;28.40;72.10;;;;;;4956872;29;20493;-69
2022/06/29 15:40:12;;;;;;;1.93;1.93;;;28.60;72.80;;;;;;4952364;29;20471;-69
2022/06/29 15:42:40;;;;;;;2.00;2.00;;;28.50;73.30;;;;;;4952663;28;20516;-70
2022/06/29 15:45:08;;;;;;;1.90;1.90;;;28.50;72.70;;;;;;4952360;29;20488;-69
2022/06/29 15:47:34;;;;;;;2.10;2.10;;;28.30;72.30;;;;;;4953040;29;20469;-69
2022/06/29 15:50:01;;;;;;;1.80;1.80;;;28.40;73.40;;;;;;4952095;29;20477;-68
2022/06/29 15:52:29;;;;;;;1.83;1.80;;;28.60;72.50;;;;;;4952259;29;21021;-69
2022/06/29 15:57:40;;;;;;;2.23;2.13;;;28.30;71.50;;;;;;4953155;29;20448;-68
2022/06/29 16:00:08;;;;;;;1.60;1.60;;;28.20;71.90;;;;;;4966225;28;20806;-69
2022/06/29 16:02:35;;;;;;;1.67;1.67;;;28.20;71.70;;;;;;4971652;28;20574;-69
2022/06/29 16:05:01;;;;;;;2.07;2.00;;;28.20;71.30;;;;;;4971737;28;20582;-69
2022/06/29 16:07:29;;;;;;;3.30;2.03;;;28.20;71.70;;;;;;4971953;28;20471;-69
2022/06/29 16:09:56;;;;;;;1.40;1.40;;;28.30;71.30;;;;;;4971303;28;20467;-69
2022/06/29 16:12:23;;;;;;;1.63;1.63;;;28.40;70.50;;;;;;4971990;28;20487;-68
2022/06/29 16:14:50;;;;;;;2.30;2.27;;;28.30;70.30;;;;;;4971931;28;20468;-69
2022/06/29 16:17:20;;;;;;;2.00;2.00;;;28.40;69.70;;;;;;4995198;23;20513;-67
2022/06/29 16:19:47;;;;;;;1.87;1.77;;;28.30;69.80;;;;;;4971303;28;20498;-68
2022/06/29 16:22:15;;;;;;;1.70;1.70;;;28.30;69.30;;;;;;4971674;28;20467;-68
2022/06/29 16:24:43;;;;;;;1.40;1.40;;;28.30;69.50;;;;;;4970655;28;20954;-68
2022/06/29 16:27:11;;;;;;;1.43;1.43;;;28.10;69.20;;;;;;4971164;28;20503;-68
2022/06/29 16:29:38;;;;;;;1.93;1.93;;;28.10;69.90;;;;;;4970722;28;20854;-68
2022/06/29 16:32:06;;;;;;;2.43;1.57;;;28.20;69.00;;;;;;4971343;28;20463;-68
2022/06/29 16:34:32;;;;;;;2.40;2.30;;;28.20;68.70;;;;;;4970818;28;20463;-68
2022/06/29 16:36:59;;;;;;;2.00;1.90;;;28.30;68.90;;;;;;4971231;28;20480;-68
2022/06/29 16:39:26;;;;;;;1.90;1.90;;;28.40;69.90;;;;;;4970627;28;20901;-68
2022/06/29 16:41:54;;;;;;;2.07;2.00;;;28.40;68.70;;;;;;4971111;28;20475;-67
2022/06/29 16:44:20;;;;;;;4.47;2.23;;;28.40;68.40;;;;;;4970755;28;20476;-67
2022/06/29 16:46:48;;;;;;;1.80;1.80;;;28.30;67.70;;;;;;4970897;28;20488;-68
2022/06/29 16:49:15;;;;;;;2.67;2.03;;;28.20;67.80;;;;;;4966988;28;20470;-68
2022/06/29 16:51:41;;;;;;;1.70;1.70;;;28.20;68.70;;;;;;4970864;28;20468;-68
2022/06/29 16:54:08;;;;;;;1.70;1.60;;;28.20;68.60;;;;;;4970628;28;20467;-67
2022/06/29 16:56:35;;;;;;;1.93;1.70;;;28.10;69.00;;;;;;4974512;28;20492;-68
2022/06/29 16:59:03;;;;;;;2.10;2.00;;;28.10;69.50;;;;;;4974122;28;20474;-67
2022/06/29 17:01:30;;;;;;;2.00;2.00;;;28.20;68.70;;;;;;4974388;28;20660;-68
2022/06/29 17:03:56;;;;;;;2.57;1.90;;;28.00;69.20;;;;;;4974327;28;20467;-67
2022/06/29 17:06:23;;;;;;;2.10;2.10;;;27.80;68.90;;;;;;4974118;28;20495;-67
2022/06/29 17:08:50;;;;;;;1.70;1.70;;;27.80;69.60;;;;;;4974065;28;20939;-67
2022/06/29 17:11:17;;;;;;;2.00;2.00;;;27.70;69.70;;;;;;4973929;28;20472;-67
2022/06/29 17:13:44;;;;;;;1.90;1.90;;;27.70;70.20;;;;;;4974105;28;20464;-67
2022/06/29 17:16:12;;;;;;;1.83;1.73;;;27.60;69.80;;;;;;4973536;28;21022;-67
2022/06/29 17:18:39;;;;;;;2.07;1.97;;;27.70;70.10;;;;;;4974196;28;20483;-67
2022/06/29 17:21:05;;;;;;;2.10;2.10;;;27.70;69.70;;;;;;4973811;28;20932;-67
2022/06/29 17:23:32;;;;;;;1.97;1.87;;;27.70;70.50;;;;;;4973319;28;20460;-67